createdAt,value
2019-05-20T00:00:33.219Z,74.51
2019-05-20T00:03:05.510Z,74.53
2019-05-20T00:05:37.927Z,74.64
2019-05-20T00:08:11.920Z,74.56
2019-05-20T00:10:44.604Z,74.42
2019-05-20T00:13:18.927Z,74.46
2019-05-20T00:15:51.754Z,74.39
2019-05-20T00:18:24.058Z,74.17
2019-05-20T00:20:56.364Z,74.13
2019-05-20T00:23:28.684Z,74.23
2019-05-20T00:26:02.364Z,74.41
2019-05-20T00:28:38.149Z,74.45
2019-05-20T00:31:11.326Z,74.38
2019-05-20T00:33:43.566Z,74.31
2019-05-20T00:36:15.942Z,74.26
2019-05-20T00:39:07.585Z,74.11
2019-05-20T00:41:43.605Z,73.99
2019-05-20T00:44:18.971Z,73.97
2019-05-20T00:46:51.358Z,74.31
2019-05-20T00:49:26.688Z,74.63
2019-05-20T00:52:00.068Z,74.69
2019-05-20T00:54:32.288Z,74.35
2019-05-20T00:57:04.637Z,74.37
2019-05-20T00:59:36.926Z,74.53
2019-05-20T01:02:09.280Z,74.56
2019-05-20T01:04:41.549Z,74.35
2019-05-20T01:07:14.716Z,74.12
2019-05-20T01:09:46.916Z,74.05
2019-05-20T01:12:19.274Z,74.10
2019-05-20T01:14:51.523Z,74.03
2019-05-20T01:17:23.837Z,74.18
2019-05-20T01:19:56.068Z,74.35
2019-05-20T01:22:28.427Z,74.49
2019-05-20T01:25:00.698Z,74.51
2019-05-20T01:27:33.024Z,74.32
2019-05-20T01:30:07.145Z,74.17
2019-05-20T01:32:39.556Z,74.27
2019-05-20T01:35:11.782Z,74.34
2019-05-20T01:37:44.128Z,74.29
2019-05-20T01:40:16.711Z,74.29
2019-05-20T01:42:49.602Z,74.04
2019-05-20T01:45:21.951Z,73.74
2019-05-20T01:47:54.255Z,73.79
2019-05-20T01:50:27.497Z,74.08
2019-05-20T01:52:59.790Z,74.67
2019-05-20T01:55:36.391Z,75.30
2019-05-20T01:58:14.601Z,75.32
2019-05-20T02:00:46.928Z,75.04
2019-05-20T02:03:30.942Z,74.68
2019-05-20T02:06:04.605Z,74.46
2019-05-20T02:08:38.529Z,74.35
2019-05-20T02:11:10.786Z,74.26
2019-05-20T02:13:55.273Z,74.33
2019-05-20T02:16:27.581Z,74.72
2019-05-20T02:18:59.857Z,75.14
2019-05-20T02:21:32.160Z,75.43
2019-05-20T02:24:04.500Z,76.13
2019-05-20T02:26:36.803Z,76.37
2019-05-20T02:29:09.163Z,76.25
2019-05-20T02:31:41.436Z,76.07
2019-05-20T02:34:15.337Z,75.84
2019-05-20T02:36:47.589Z,75.95
2019-05-20T02:39:19.903Z,76.06
2019-05-20T02:41:52.160Z,76.04
2019-05-20T02:44:24.529Z,75.95
2019-05-20T02:46:57.809Z,75.94
2019-05-20T02:49:30.162Z,76.01
2019-05-20T02:52:02.465Z,76.23
2019-05-20T02:54:35.594Z,76.64
2019-05-20T02:57:07.807Z,77.13
2019-05-20T02:59:40.988Z,77.30
2019-05-20T03:02:13.257Z,77.64
2019-05-20T03:04:45.644Z,77.78
2019-05-20T03:07:17.922Z,78.15
2019-05-20T03:09:50.193Z,78.85
2019-05-20T03:12:22.474Z,79.66
2019-05-20T03:14:54.819Z,80.35
2019-05-20T03:17:27.089Z,81.28
2019-05-20T03:19:59.316Z,81.85
2019-05-20T03:22:31.677Z,82.33
2019-05-20T03:25:04.786Z,82.83
2019-05-20T03:27:37.219Z,83.48
2019-05-20T03:30:10.550Z,83.65
2019-05-20T03:32:44.749Z,84.18
2019-05-20T03:35:17.048Z,84.54
2019-05-20T03:37:50.612Z,84.84
2019-05-20T03:40:23.807Z,85.63
2019-05-20T03:42:56.055Z,85.86
2019-05-20T03:45:28.318Z,86.16
2019-05-20T03:48:00.929Z,86.66
2019-05-20T03:50:34.149Z,86.81
2019-05-20T03:53:06.580Z,86.91
2019-05-20T03:55:38.881Z,86.87
2019-05-20T03:58:13.632Z,86.84
2019-05-20T04:00:47.208Z,86.78
2019-05-20T04:03:19.509Z,86.95
2019-05-20T04:05:52.612Z,86.94
2019-05-20T04:08:26.736Z,86.97
2019-05-20T04:11:00.421Z,86.92
2019-05-20T04:13:34.813Z,86.91
2019-05-20T04:16:07.386Z,86.98
2019-05-20T04:18:41.329Z,87.05
2019-05-20T04:21:13.644Z,87.17
2019-05-20T04:23:45.953Z,87.15
2019-05-20T04:26:18.315Z,87.14
2019-05-20T04:28:50.659Z,87.16
2019-05-20T04:31:23.590Z,87.38
2019-05-20T04:33:55.908Z,87.41
2019-05-20T04:36:28.291Z,87.40
2019-05-20T04:39:00.608Z,87.40
2019-05-20T04:41:35.449Z,87.35
2019-05-20T04:44:08.238Z,87.14
2019-05-20T04:46:40.538Z,87.00
2019-05-20T04:49:13.766Z,86.86
2019-05-20T04:51:47.230Z,86.81
2019-05-20T04:54:19.528Z,86.75
2019-05-20T04:56:52.640Z,86.85
2019-05-20T04:59:25.041Z,86.86
2019-05-20T05:01:57.340Z,86.83
2019-05-20T05:04:29.650Z,86.99
2019-05-20T05:07:02.761Z,87.07
2019-05-20T05:09:38.092Z,87.11
2019-05-20T05:12:10.415Z,87.22
2019-05-20T05:14:42.776Z,87.29
2019-05-20T05:17:15.155Z,87.25
2019-05-20T05:19:47.498Z,87.22
2019-05-20T05:22:20.508Z,87.14
2019-05-20T05:24:52.897Z,87.08
2019-05-20T05:27:25.279Z,87.09
2019-05-20T05:29:57.558Z,87.10
2019-05-20T05:32:36.400Z,87.11
2019-05-20T05:35:12.759Z,87.10
2019-05-20T05:37:45.551Z,87.01
2019-05-20T05:40:17.834Z,86.95
2019-05-20T05:42:51.075Z,86.78
2019-05-20T05:45:34.238Z,86.75
2019-05-20T05:48:06.512Z,86.70
2019-05-20T05:50:38.962Z,86.59
2019-05-20T05:53:12.534Z,86.43
2019-05-20T05:55:44.851Z,86.30
2019-05-20T05:58:17.179Z,86.25
2019-05-20T06:00:49.482Z,86.28
2019-05-20T06:03:22.467Z,86.25
2019-05-20T06:06:10.628Z,86.16
2019-05-20T06:08:45.687Z,86.14
2019-05-20T06:11:19.018Z,86.09
2019-05-20T06:13:52.043Z,86.04
2019-05-20T06:16:35.791Z,86.08
2019-05-20T06:19:09.423Z,86.15
2019-05-20T06:21:41.035Z,86.09
2019-05-20T06:24:13.300Z,86.04
2019-05-20T06:26:47.056Z,86.09
2019-05-20T06:29:19.335Z,86.19
2019-05-20T06:31:51.731Z,86.22
2019-05-20T06:34:24.087Z,86.02
2019-05-20T06:37:00.199Z,85.95
2019-05-20T06:39:32.757Z,85.91
2019-05-20T06:42:05.672Z,85.83
2019-05-20T06:44:51.738Z,85.64
2019-05-20T06:47:26.474Z,85.55
2019-05-20T06:49:58.727Z,85.37
2019-05-20T06:52:36.188Z,85.28
2019-05-20T06:55:10.862Z,85.16
2019-05-20T06:57:43.407Z,84.97
2019-05-20T07:00:36.484Z,84.74
2019-05-20T07:03:08.783Z,84.54
2019-05-20T07:05:41.144Z,84.42
2019-05-20T07:08:13.455Z,84.42
2019-05-20T07:10:47.139Z,84.34
2019-05-20T07:13:22.561Z,84.13
2019-05-20T07:15:56.360Z,84.01
2019-05-20T07:18:28.705Z,83.78
2019-05-20T07:21:01.664Z,83.55
2019-05-20T07:23:34.801Z,83.44
2019-05-20T07:26:07.140Z,83.34
2019-05-20T07:28:42.037Z,83.28
2019-05-20T07:31:14.904Z,83.06
2019-05-20T07:33:47.347Z,83.04
2019-05-20T07:36:21.735Z,83.09
2019-05-20T07:38:54.147Z,83.05
2019-05-20T07:41:27.409Z,83.03
2019-05-20T07:43:59.918Z,83.07
2019-05-20T07:46:33.322Z,83.05
2019-05-20T07:49:05.742Z,82.92
2019-05-20T07:51:40.816Z,82.68
2019-05-20T07:54:13.344Z,82.45
2019-05-20T07:56:46.635Z,82.19
2019-05-20T07:59:19.137Z,82.01
2019-05-20T08:01:52.820Z,82.19
2019-05-20T08:04:25.192Z,82.18
2019-05-20T08:06:57.608Z,81.96
2019-05-20T08:09:34.609Z,81.78
2019-05-20T08:12:07.879Z,81.63
2019-05-20T08:14:40.163Z,81.50
2019-05-20T08:17:13.083Z,81.35
2019-05-20T08:19:45.442Z,81.29
2019-05-20T08:22:18.444Z,81.52
2019-05-20T08:24:50.712Z,81.58
2019-05-20T08:27:23.964Z,81.48
2019-05-20T08:29:56.336Z,81.43
2019-05-20T08:32:29.597Z,81.47
2019-05-20T08:35:02.638Z,81.40
2019-05-20T08:37:45.501Z,81.30
2019-05-20T08:40:19.139Z,81.29
2019-05-20T08:42:51.542Z,81.12
2019-05-20T08:45:26.935Z,81.04
2019-05-20T08:48:01.022Z,81.09
2019-05-20T08:50:35.060Z,81.08
2019-05-20T08:53:09.091Z,80.99
2019-05-20T08:55:43.148Z,81.03
2019-05-20T08:58:15.546Z,81.15
2019-05-20T09:00:47.836Z,81.06
2019-05-20T09:03:20.827Z,81.00
2019-05-20T09:06:00.629Z,80.85
2019-05-20T09:08:33.064Z,80.73
2019-05-20T09:11:05.379Z,80.62
2019-05-20T09:13:37.810Z,80.66
2019-05-20T09:16:14.303Z,80.57
2019-05-20T09:18:46.644Z,80.30
2019-05-20T09:21:19.044Z,80.22
2019-05-20T09:23:51.415Z,80.03
2019-05-20T09:26:24.624Z,79.81
2019-05-20T09:28:57.459Z,79.29
2019-05-20T09:31:30.615Z,79.35
2019-05-20T09:34:03.658Z,79.49
2019-05-20T09:36:37.011Z,79.57
2019-05-20T09:39:09.856Z,79.44
2019-05-20T09:41:42.810Z,79.39
2019-05-20T09:44:15.208Z,79.43
2019-05-20T09:46:48.262Z,79.36
2019-05-20T09:49:24.267Z,79.04
2019-05-20T09:52:01.529Z,78.84
2019-05-20T09:54:39.705Z,78.92
2019-05-20T09:57:18.272Z,78.58
2019-05-20T09:59:58.730Z,78.28
2019-05-20T10:05:24.447Z,78.56
2019-05-20T10:08:04.563Z,78.47
2019-05-20T10:10:40.014Z,78.32
2019-05-20T10:13:16.165Z,77.93
2019-05-20T10:19:06.501Z,77.50
2019-05-20T10:21:53.335Z,77.41
2019-05-20T10:24:30.777Z,77.55
2019-05-20T10:27:22.442Z,77.73
2019-05-20T10:29:54.884Z,77.39
2019-05-20T10:32:27.757Z,77.22
2019-05-20T10:35:01.036Z,77.07
2019-05-20T10:37:33.618Z,77.03
2019-05-20T10:40:06.100Z,77.07
2019-05-20T10:42:38.418Z,76.87
2019-05-20T10:45:12.204Z,76.75
2019-05-20T10:47:44.456Z,75.99
2019-05-20T10:50:17.464Z,75.90
2019-05-20T10:52:50.311Z,75.50
2019-05-20T10:55:23.864Z,75.40
2019-05-20T10:57:57.152Z,75.36
2019-05-20T11:00:30.370Z,75.08
2019-05-20T11:03:03.238Z,74.77
2019-05-20T11:05:35.654Z,74.72
2019-05-20T11:08:08.829Z,74.49
2019-05-20T11:10:42.710Z,74.26
2019-05-20T11:13:15.571Z,74.30
2019-05-20T11:15:52.713Z,74.27
2019-05-20T11:18:27.452Z,74.58
2019-05-20T11:21:06.447Z,74.79
2019-05-20T11:23:38.712Z,74.63
2019-05-20T11:26:13.984Z,74.69
2019-05-20T11:28:47.231Z,74.71
2019-05-20T11:31:19.622Z,74.65
2019-05-20T11:33:51.992Z,74.83
2019-05-20T11:36:25.063Z,74.68
2019-05-20T11:38:59.373Z,74.72
2019-05-20T11:41:53.253Z,74.83
2019-05-20T11:44:28.657Z,74.75
2019-05-20T11:47:01.598Z,74.66
2019-05-20T11:49:35.095Z,74.72
2019-05-20T11:52:08.271Z,74.83
2019-05-20T11:54:42.333Z,74.80
2019-05-20T11:57:17.028Z,74.96
2019-05-20T11:59:49.379Z,74.94
2019-05-20T12:02:22.558Z,74.60
2019-05-20T12:04:56.398Z,74.69
2019-05-20T12:07:28.677Z,74.88
2019-05-20T12:10:02.711Z,74.94
2019-05-20T12:12:35.830Z,74.97
2019-05-20T12:15:08.697Z,74.96
2019-05-20T12:17:43.817Z,74.86
2019-05-20T12:20:18.376Z,74.99
2019-05-20T12:22:52.352Z,75.05
2019-05-20T12:25:24.698Z,75.10
2019-05-20T12:27:59.624Z,75.19
2019-05-20T12:30:34.209Z,75.02
2019-05-20T12:33:18.334Z,75.02
2019-05-20T12:35:51.821Z,75.21
2019-05-20T12:38:26.388Z,75.20
2019-05-20T12:40:58.820Z,75.28
2019-05-20T12:43:36.208Z,75.39
2019-05-20T12:46:09.272Z,75.60
2019-05-20T12:48:42.059Z,75.55
2019-05-20T12:51:14.859Z,75.72
2019-05-20T12:53:47.982Z,75.88
2019-05-20T12:56:21.616Z,75.71
2019-05-20T12:58:53.977Z,75.49
2019-05-20T13:01:26.346Z,75.57
2019-05-20T13:03:58.750Z,75.66
2019-05-20T13:06:31.121Z,75.74
2019-05-20T13:09:09.369Z,75.48
2019-05-20T13:11:42.386Z,75.19
2019-05-20T13:14:15.820Z,74.97
2019-05-20T13:16:48.676Z,75.01
2019-05-20T13:19:21.059Z,75.03
2019-05-20T13:21:53.589Z,74.99
2019-05-20T13:24:26.903Z,75.04
2019-05-20T13:27:00.709Z,74.73
2019-05-20T13:29:34.600Z,74.51
2019-05-20T13:32:06.953Z,74.04
2019-05-20T13:34:42.482Z,73.87
2019-05-20T13:37:16.511Z,73.90
2019-05-20T13:39:49.569Z,73.80
2019-05-20T13:42:22.501Z,73.71
2019-05-20T13:44:54.947Z,73.60
2019-05-20T13:47:27.313Z,73.59
2019-05-20T13:49:59.792Z,73.65
2019-05-20T13:52:32.461Z,73.88
2019-05-20T13:55:06.030Z,73.51
2019-05-20T13:57:39.585Z,73.20
2019-05-20T14:00:14.813Z,73.07
2019-05-20T14:02:47.760Z,72.79
2019-05-20T14:05:20.841Z,72.87
2019-05-20T14:08:02.602Z,73.18
2019-05-20T14:10:35.061Z,73.37
2019-05-20T14:13:08.260Z,73.58
2019-05-20T14:15:41.813Z,73.95
2019-05-20T14:18:15.864Z,74.02
2019-05-20T14:20:51.481Z,74.13
2019-05-20T14:23:24.457Z,74.13
2019-05-20T14:25:57.461Z,74.21
2019-05-20T14:28:31.712Z,74.25
2019-05-20T14:31:06.674Z,74.22
2019-05-20T14:33:39.753Z,74.17
2019-05-20T14:36:38.007Z,74.24
2019-05-20T14:39:11.606Z,74.36
2019-05-20T14:41:44.041Z,74.42
2019-05-20T14:44:18.199Z,74.50
2019-05-20T14:46:52.184Z,74.52
2019-05-20T14:49:26.819Z,74.58
2019-05-20T14:51:59.887Z,74.86
2019-05-20T14:54:32.344Z,74.89
2019-05-20T14:57:04.657Z,74.70
2019-05-20T14:59:40.205Z,74.62
2019-05-20T15:02:14.018Z,74.50
2019-05-20T15:04:48.490Z,74.54
2019-05-20T15:07:37.408Z,74.57
2019-05-20T15:10:26.209Z,74.86
2019-05-20T15:12:59.219Z,75.11
2019-05-20T15:15:35.614Z,75.39
2019-05-20T15:18:09.506Z,75.67
2019-05-20T15:20:41.969Z,75.96
2019-05-20T15:23:14.283Z,76.13
2019-05-20T15:25:48.341Z,76.24
2019-05-20T15:28:20.709Z,76.38
2019-05-20T15:30:53.721Z,76.44
2019-05-20T15:33:26.089Z,76.53
2019-05-20T15:36:01.444Z,76.63
2019-05-20T15:38:34.778Z,76.59
2019-05-20T15:41:07.179Z,76.51
2019-05-20T15:43:39.757Z,76.40
2019-05-20T15:46:15.550Z,76.31
2019-05-20T15:48:49.444Z,76.28
2019-05-20T15:51:27.631Z,76.29
2019-05-20T15:54:00.963Z,76.32
2019-05-20T15:56:37.308Z,76.35
2019-05-20T15:59:09.717Z,76.32
2019-05-20T16:01:44.091Z,76.30
2019-05-20T16:04:16.527Z,76.52
2019-05-20T16:06:48.963Z,76.60
2019-05-20T16:09:21.339Z,76.59
2019-05-20T16:11:53.819Z,76.64
2019-05-20T16:14:32.442Z,76.81
2019-05-20T16:17:05.470Z,77.10
2019-05-20T16:19:39.302Z,77.21
2019-05-20T16:22:13.231Z,77.39
2019-05-20T16:24:48.954Z,77.35
2019-05-20T16:27:23.790Z,77.18
2019-05-20T16:30:06.295Z,77.08
2019-05-20T16:32:39.868Z,76.96
2019-05-20T16:35:14.927Z,76.69
2019-05-20T16:37:48.192Z,76.80
2019-05-20T16:40:20.591Z,76.64
2019-05-20T16:42:56.082Z,76.58
2019-05-20T16:45:30.296Z,76.76
2019-05-20T16:48:04.575Z,76.84
2019-05-20T16:50:40.062Z,76.99
2019-05-20T16:53:19.856Z,77.02
2019-05-20T16:55:53.076Z,77.20
2019-05-20T16:58:26.107Z,77.31
2019-05-20T17:00:58.515Z,77.29
2019-05-20T17:03:31.732Z,77.30
2019-05-20T17:06:06.291Z,77.17
2019-05-20T17:08:38.846Z,77.10
2019-05-20T17:11:11.854Z,77.04
2019-05-20T17:13:46.300Z,77.00
2019-05-20T17:16:21.339Z,76.98
2019-05-20T17:18:54.742Z,76.89
2019-05-20T17:21:27.689Z,76.93
2019-05-20T17:24:00.811Z,76.95
2019-05-20T17:26:34.766Z,77.03
2019-05-20T17:29:11.932Z,77.16
2019-05-20T17:31:44.417Z,77.16
2019-05-20T17:34:17.482Z,77.24
2019-05-20T17:36:52.260Z,77.41
2019-05-20T17:39:25.268Z,77.47
2019-05-20T17:42:02.025Z,77.43
2019-05-20T17:44:36.002Z,77.48
2019-05-20T17:47:09.537Z,77.63
2019-05-20T17:49:42.080Z,77.82
2019-05-20T17:52:15.477Z,77.91
2019-05-20T17:54:49.835Z,77.99
2019-05-20T17:57:25.420Z,78.01
2019-05-20T17:59:58.916Z,78.08
2019-05-20T18:02:32.065Z,78.12
2019-05-20T18:05:09.541Z,78.17
2019-05-20T18:07:46.781Z,78.17
2019-05-20T18:10:24.836Z,78.24
2019-05-20T18:13:02.263Z,78.19
2019-05-20T18:15:36.409Z,78.25
2019-05-20T18:18:09.675Z,78.26
2019-05-20T18:20:42.366Z,78.17
2019-05-20T18:23:17.928Z,78.14
2019-05-20T18:25:52.456Z,78.13
2019-05-20T18:28:24.877Z,78.19
2019-05-20T18:30:58.218Z,78.30
2019-05-20T18:33:31.645Z,78.42
2019-05-20T18:36:06.899Z,78.49
2019-05-20T18:38:41.459Z,78.65
2019-05-20T18:41:15.134Z,78.81
2019-05-20T18:43:50.356Z,78.94
2019-05-20T18:46:25.308Z,78.99
2019-05-20T18:48:58.631Z,79.08
2019-05-20T18:51:32.463Z,79.31
2019-05-20T18:54:04.980Z,79.36
2019-05-20T18:56:42.088Z,79.49
2019-05-20T18:59:15.472Z,79.61
2019-05-20T19:02:03.877Z,79.72
2019-05-20T19:04:38.812Z,79.86
2019-05-20T19:07:12.010Z,79.93
2019-05-20T19:09:45.043Z,79.99
2019-05-20T19:12:17.469Z,80.04
2019-05-20T19:14:50.734Z,80.19
2019-05-20T19:17:23.513Z,80.33
2019-05-20T19:19:56.124Z,80.42
2019-05-20T19:22:28.525Z,80.39
2019-05-20T19:25:06.919Z,80.30
2019-05-20T19:27:39.928Z,80.31
2019-05-20T19:30:15.812Z,80.45
2019-05-20T19:32:49.271Z,80.50
2019-05-20T19:35:23.331Z,80.53
2019-05-20T19:38:00.229Z,80.46
2019-05-20T19:40:32.663Z,80.42
2019-05-20T19:43:05.643Z,80.49
2019-05-20T19:45:38.321Z,80.53
2019-05-20T19:48:12.480Z,80.59
2019-05-20T19:50:47.490Z,80.70
2019-05-20T19:53:21.285Z,80.80
2019-05-20T19:55:55.802Z,80.93
2019-05-20T19:58:29.574Z,81.05
2019-05-20T20:01:03.392Z,81.16
2019-05-20T20:03:39.684Z,81.32
2019-05-20T20:06:13.133Z,81.38
2019-05-20T20:08:46.063Z,81.52
2019-05-20T20:11:19.918Z,81.58
2019-05-20T20:13:52.682Z,81.59
2019-05-20T20:16:29.010Z,81.64
2019-05-20T20:19:07.322Z,81.67
2019-05-20T20:21:43.496Z,81.73
2019-05-20T20:24:18.100Z,81.72
2019-05-20T20:26:51.460Z,81.83
2019-05-20T20:29:25.261Z,81.93
2019-05-20T20:32:00.026Z,81.95
2019-05-20T20:34:33.029Z,82.00
2019-05-20T20:37:06.938Z,82.04
2019-05-20T20:39:40.595Z,82.12
2019-05-20T20:42:15.954Z,82.22
2019-05-20T20:44:49.762Z,82.29
2019-05-20T20:47:23.116Z,82.35
2019-05-20T20:50:03.350Z,82.44
2019-05-20T20:52:39.759Z,82.44
2019-05-20T20:55:13.849Z,82.59
2019-05-20T20:57:49.533Z,82.58
2019-05-20T21:01:04.454Z,82.64
2019-05-20T21:03:37.269Z,82.81
2019-05-20T21:06:16.986Z,82.95
2019-05-20T21:08:56.745Z,83.24
2019-05-20T21:11:36.159Z,83.64
2019-05-20T21:14:10.023Z,83.87
2019-05-20T21:16:44.340Z,84.17
2019-05-20T21:19:16.793Z,84.60
2019-05-20T21:21:49.219Z,85.03
2019-05-20T21:24:21.608Z,85.20
2019-05-20T21:26:54.613Z,85.44
2019-05-20T21:29:27.085Z,85.59
2019-05-20T21:32:01.539Z,85.72
2019-05-20T21:34:35.253Z,85.81
2019-05-20T21:37:10.999Z,86.00
2019-05-20T21:39:45.632Z,86.18
2019-05-20T21:42:21.465Z,86.37
2019-05-20T21:44:54.427Z,86.70
2019-05-20T21:47:26.755Z,86.93
2019-05-20T21:50:02.022Z,87.28
2019-05-20T21:52:35.823Z,87.48
2019-05-20T21:55:13.022Z,87.73
2019-05-20T21:57:46.905Z,87.87
2019-05-20T22:00:34.132Z,88.05
2019-05-20T22:03:07.291Z,88.28
2019-05-20T22:05:40.318Z,88.44
2019-05-20T22:08:12.592Z,88.61
2019-05-20T22:10:50.754Z,88.78
2019-05-20T22:13:23.805Z,89.16
2019-05-20T22:15:56.134Z,89.31
2019-05-20T22:18:28.539Z,89.47
2019-05-20T22:21:01.000Z,89.57
2019-05-20T22:23:44.893Z,89.63
2019-05-20T22:26:17.176Z,89.63
2019-05-20T22:28:50.529Z,89.58
2019-05-20T22:31:24.429Z,89.53
2019-05-20T22:33:56.746Z,89.37
2019-05-20T22:36:29.044Z,89.04
2019-05-20T22:39:02.658Z,88.85
2019-05-20T22:41:35.061Z,88.78
2019-05-20T22:44:07.437Z,88.76
2019-05-20T22:46:39.843Z,88.67
2019-05-20T22:49:12.166Z,88.50
2019-05-20T22:51:44.540Z,88.39
2019-05-20T22:54:16.971Z,88.30
2019-05-20T22:56:50.858Z,88.24
2019-05-20T22:59:23.147Z,88.16
2019-05-20T23:01:56.294Z,88.14
2019-05-20T23:04:30.741Z,88.11
2019-05-20T23:07:05.939Z,88.10
2019-05-20T23:09:38.350Z,87.98
2019-05-20T23:12:12.108Z,88.09
2019-05-20T23:14:44.480Z,88.17
2019-05-20T23:17:17.041Z,88.24
2019-05-20T23:19:50.307Z,88.28
2019-05-20T23:22:22.666Z,88.46
2019-05-20T23:24:54.958Z,88.75
2019-05-20T23:27:27.245Z,88.91
2019-05-20T23:30:04.897Z,89.07
2019-05-20T23:32:38.503Z,89.34
2019-05-20T23:35:10.805Z,89.49
2019-05-20T23:37:43.126Z,89.64
2019-05-20T23:40:15.476Z,89.77
2019-05-20T23:42:48.908Z,89.86
2019-05-20T23:45:21.819Z,89.93
2019-05-20T23:47:55.886Z,89.95
2019-05-20T23:50:28.198Z,90.05
2019-05-20T23:53:02.042Z,90.22
2019-05-20T23:55:34.374Z,90.36
2019-05-20T23:58:06.684Z,90.57
